createdAt,value
2024-05-09T00:00:51.388Z,1.30
2024-05-09T00:03:21.493Z,1.38
2024-05-09T00:05:51.667Z,1.40
2024-05-09T00:08:21.874Z,1.70
2024-05-09T00:10:54.958Z,1.17
2024-05-09T00:13:25.014Z,1.50
2024-05-09T00:15:54.934Z,1.60
2024-05-09T00:18:25.110Z,1.30
2024-05-09T00:20:55.195Z,1.40
2024-05-09T00:23:25.202Z,1.60
2024-05-09T00:25:57.898Z,1.27
2024-05-09T00:28:28.298Z,1.63
2024-05-09T00:30:58.262Z,1.30
2024-05-09T00:33:28.686Z,1.50
2024-05-09T00:35:58.844Z,1.50
2024-05-09T00:38:28.927Z,1.60
2024-05-09T00:41:01.741Z,1.92
2024-05-09T00:43:32.900Z,1.60
2024-05-09T00:46:03.106Z,1.33
2024-05-09T00:48:33.362Z,1.45
2024-05-09T00:51:04.688Z,1.60
2024-05-09T00:53:35.783Z,1.70
2024-05-09T00:56:11.113Z,1.40
2024-05-09T00:58:41.772Z,1.55
2024-05-09T01:01:12.429Z,1.33
2024-05-09T01:03:42.674Z,1.38
2024-05-09T01:06:12.854Z,1.70
2024-05-09T01:08:42.869Z,1.60
2024-05-09T01:11:16.632Z,1.58
2024-05-09T01:13:46.823Z,1.55
2024-05-09T01:16:17.058Z,1.50
2024-05-09T01:18:47.162Z,1.42
2024-05-09T01:21:17.262Z,1.40
2024-05-09T01:23:49.979Z,1.50
2024-05-09T01:26:20.075Z,1.85
2024-05-09T01:28:50.034Z,1.48
2024-05-09T01:31:20.070Z,1.60
2024-05-09T01:33:50.092Z,1.60
2024-05-09T01:36:20.139Z,1.70
2024-05-09T01:38:52.778Z,1.70
2024-05-09T01:41:22.822Z,1.50
2024-05-09T01:43:53.003Z,1.73
2024-05-09T01:46:23.115Z,1.50
2024-05-09T01:48:53.089Z,1.60
2024-05-09T01:51:23.111Z,1.67
2024-05-09T01:53:57.924Z,1.73
2024-05-09T01:56:28.006Z,1.60
2024-05-09T01:58:58.062Z,1.70
2024-05-09T02:01:28.045Z,1.80
2024-05-09T02:03:58.260Z,1.63
2024-05-09T02:06:28.575Z,1.77
2024-05-09T02:09:01.141Z,1.65
2024-05-09T02:11:31.087Z,1.50
2024-05-09T02:14:01.306Z,1.48
2024-05-09T02:16:31.250Z,1.52
2024-05-09T02:19:01.398Z,1.60
2024-05-09T02:21:34.303Z,1.65
2024-05-09T02:24:07.236Z,1.67
2024-05-09T02:26:37.166Z,1.90
2024-05-09T02:29:07.198Z,1.60
2024-05-09T02:31:37.141Z,1.80
2024-05-09T02:34:07.275Z,1.63
2024-05-09T02:36:34.657Z,1.60
2024-05-09T02:39:07.498Z,1.60
2024-05-09T02:41:34.836Z,1.67
2024-05-09T02:44:04.905Z,1.73
2024-05-09T02:46:32.288Z,1.83
2024-05-09T02:49:02.322Z,1.85
2024-05-09T02:51:29.683Z,1.60
2024-05-09T02:53:59.599Z,1.70
2024-05-09T02:56:29.627Z,2.00
2024-05-09T02:58:59.746Z,2.05
2024-05-09T03:01:27.067Z,1.83
2024-05-09T03:03:57.310Z,1.80
2024-05-09T03:06:24.850Z,1.88
2024-05-09T03:08:54.787Z,1.88
2024-05-09T03:11:22.897Z,1.70
2024-05-09T03:13:57.374Z,1.77
2024-05-09T03:16:24.612Z,1.75
2024-05-09T03:18:54.851Z,1.73
2024-05-09T03:21:22.240Z,1.77
2024-05-09T03:23:52.196Z,1.88
2024-05-09T03:26:19.579Z,1.92
2024-05-09T03:28:49.558Z,2.00
2024-05-09T03:31:21.394Z,2.22
2024-05-09T03:33:51.556Z,1.77
2024-05-09T03:36:18.916Z,1.90
2024-05-09T03:38:50.546Z,1.70
2024-05-09T03:41:23.135Z,2.00
2024-05-09T03:43:53.393Z,1.60
2024-05-09T03:46:26.059Z,1.88
2024-05-09T03:48:53.400Z,1.92
2024-05-09T03:51:23.326Z,1.80
2024-05-09T03:53:50.530Z,2.08
2024-05-09T03:56:20.573Z,1.90
2024-05-09T03:58:47.826Z,1.80
2024-05-09T04:01:18.006Z,1.83
2024-05-09T04:03:48.182Z,2.00
2024-05-09T04:06:23.597Z,2.10
2024-05-09T04:08:50.860Z,2.10
2024-05-09T04:11:21.107Z,2.05
2024-05-09T04:13:48.406Z,1.90
2024-05-09T04:16:18.475Z,2.20
2024-05-09T04:18:48.551Z,2.03
2024-05-09T04:21:18.526Z,1.88
2024-05-09T04:23:45.785Z,2.00
2024-05-09T04:26:15.902Z,2.10
2024-05-09T04:28:43.207Z,2.13
2024-05-09T04:31:13.080Z,1.98
2024-05-09T04:33:40.468Z,1.98
2024-05-09T04:36:13.284Z,2.03
2024-05-09T04:38:40.466Z,2.20
2024-05-09T04:41:10.542Z,1.80
2024-05-09T04:43:37.922Z,2.10
2024-05-09T04:46:08.133Z,1.90
2024-05-09T04:48:35.434Z,2.10
2024-05-09T04:51:06.120Z,1.90
2024-05-09T04:53:36.379Z,1.80
2024-05-09T04:56:06.725Z,1.90
2024-05-09T04:58:33.990Z,1.95
2024-05-09T05:01:03.991Z,1.75
2024-05-09T05:03:31.540Z,1.73
2024-05-09T05:06:01.704Z,1.90
2024-05-09T05:08:29.811Z,1.90
2024-05-09T05:11:02.610Z,1.75
2024-05-09T05:13:31.505Z,1.83
2024-05-09T05:16:01.575Z,2.53
2024-05-09T05:18:29.570Z,2.00
2024-05-09T05:21:00.145Z,2.17
2024-05-09T05:23:27.590Z,1.90
2024-05-09T05:25:57.818Z,1.95
2024-05-09T05:28:27.921Z,1.83
2024-05-09T05:30:58.742Z,1.77
2024-05-09T05:33:26.178Z,1.60
2024-05-09T05:35:57.498Z,1.80
2024-05-09T05:38:28.595Z,1.70
2024-05-09T05:40:56.246Z,2.00
2024-05-09T05:43:26.395Z,2.10
2024-05-09T05:45:56.375Z,1.77
2024-05-09T05:48:26.512Z,1.77
2024-05-09T05:50:53.918Z,1.80
2024-05-09T05:53:24.093Z,1.73
2024-05-09T05:55:51.592Z,1.80
2024-05-09T05:58:22.728Z,1.70
2024-05-09T06:00:53.422Z,1.58
2024-05-09T06:03:26.270Z,1.60
2024-05-09T06:05:53.635Z,1.35
2024-05-09T06:08:26.268Z,1.35
2024-05-09T06:10:55.381Z,1.25
2024-05-09T06:13:25.510Z,1.17
2024-05-09T06:15:52.725Z,1.10
2024-05-09T06:18:25.569Z,1.10
2024-05-09T06:20:52.975Z,1.10
2024-05-09T06:23:23.074Z,1.10
2024-05-09T06:25:50.459Z,1.13
2024-05-09T06:28:20.187Z,1.23
2024-05-09T06:30:47.434Z,1.20
2024-05-09T06:33:17.701Z,1.50
2024-05-09T06:35:47.864Z,1.30
2024-05-09T06:38:17.902Z,1.30
2024-05-09T06:40:45.238Z,1.30
2024-05-09T06:43:18.006Z,1.27
2024-05-09T06:45:48.253Z,1.27
2024-05-09T06:48:21.564Z,1.38
2024-05-09T06:50:52.270Z,1.00
2024-05-09T06:53:24.717Z,1.00
2024-05-09T06:55:52.133Z,1.00
2024-05-09T06:58:22.108Z,0.80
2024-05-09T07:00:49.403Z,0.95
2024-05-09T07:03:19.964Z,0.95
2024-05-09T07:05:49.242Z,0.80
2024-05-09T07:08:22.672Z,1.00
2024-05-09T07:10:50.245Z,0.90
2024-05-09T07:13:20.817Z,1.00
2024-05-09T07:15:48.127Z,0.80
2024-05-09T07:18:20.437Z,0.80
2024-05-09T07:20:49.714Z,0.80
2024-05-09T07:23:23.338Z,0.82
2024-05-09T07:25:50.862Z,0.70
2024-05-09T07:28:22.186Z,0.70
2024-05-09T07:30:49.497Z,0.80
2024-05-09T07:33:22.075Z,0.75
2024-05-09T07:35:50.935Z,0.80
2024-05-09T07:38:24.340Z,0.90
2024-05-09T07:40:51.798Z,0.90
2024-05-09T07:43:21.794Z,1.00
2024-05-09T07:45:53.581Z,0.60
2024-05-09T07:52:39.271Z,0.88
2024-05-09T07:53:52.391Z,0.80
2024-05-09T07:56:23.869Z,0.60
2024-05-09T07:58:55.903Z,0.70
2024-05-09T08:01:26.663Z,0.50
2024-05-09T08:03:57.284Z,0.77
2024-05-09T08:06:25.755Z,0.80
2024-05-09T08:09:03.034Z,0.60
2024-05-09T08:11:35.151Z,0.77
2024-05-09T08:14:05.133Z,0.70
2024-05-09T08:16:32.438Z,0.90
2024-05-09T08:19:03.384Z,0.80
2024-05-09T08:21:30.780Z,0.70
2024-05-09T08:24:03.425Z,0.90
2024-05-09T08:26:30.759Z,0.70
2024-05-09T08:29:00.772Z,0.60
2024-05-09T08:31:28.291Z,0.60
2024-05-09T08:33:58.554Z,0.70
2024-05-09T08:36:26.006Z,0.80
2024-05-09T08:38:56.206Z,0.60
2024-05-09T08:41:26.627Z,0.68
2024-05-09T08:43:56.660Z,0.60
2024-05-09T08:46:25.992Z,0.60
2024-05-09T08:49:00.575Z,0.63
2024-05-09T08:51:27.999Z,0.55
2024-05-09T08:53:58.078Z,0.80
2024-05-09T08:56:31.046Z,0.70
2024-05-09T08:59:04.653Z,0.63
2024-05-09T09:01:34.202Z,0.77
2024-05-09T09:04:07.089Z,0.70
2024-05-09T09:06:35.863Z,0.80
2024-05-09T09:09:06.804Z,0.80
2024-05-09T09:11:36.878Z,0.75
2024-05-09T09:14:06.899Z,0.70
2024-05-09T09:16:34.401Z,0.70
2024-05-09T09:19:04.973Z,0.75
2024-05-09T09:21:32.579Z,0.80
2024-05-09T09:24:02.906Z,0.80
2024-05-09T09:26:31.493Z,0.85
2024-05-09T09:29:05.570Z,0.90
2024-05-09T09:31:33.045Z,0.60
2024-05-09T09:34:10.193Z,0.50
2024-05-09T09:36:42.792Z,0.60
2024-05-09T09:39:13.718Z,0.73
2024-05-09T09:41:43.916Z,0.60
2024-05-09T09:44:16.851Z,0.63
2024-05-09T09:46:45.718Z,0.77
2024-05-09T09:49:16.007Z,0.70
2024-05-09T09:51:44.814Z,0.75
2024-05-09T09:54:16.109Z,0.82
2024-05-09T09:56:44.910Z,0.70
2024-05-09T09:59:18.388Z,0.80
2024-05-09T10:01:46.201Z,0.90
2024-05-09T10:04:19.021Z,1.65
2024-05-09T10:06:50.854Z,0.80
2024-05-09T10:09:23.023Z,0.80
2024-05-09T10:11:59.943Z,1.20
2024-05-09T10:14:34.682Z,0.70
2024-05-09T10:17:05.276Z,0.90
2024-05-09T10:19:35.441Z,0.82
2024-05-09T10:22:03.844Z,0.90
2024-05-09T10:24:49.614Z,1.00
2024-05-09T10:27:17.448Z,0.93
2024-05-09T10:30:01.337Z,0.65
2024-05-09T10:32:29.733Z,0.80
2024-05-09T10:35:03.643Z,0.70
2024-05-09T10:37:32.292Z,0.80
2024-05-09T10:40:05.479Z,1.05
2024-05-09T10:42:36.300Z,1.00
2024-05-09T10:45:10.564Z,0.90
2024-05-09T10:47:38.359Z,0.90
2024-05-09T10:50:18.312Z,0.90
2024-05-09T10:52:53.360Z,0.80
2024-05-09T10:55:23.682Z,1.05
2024-05-09T10:57:51.212Z,0.90
2024-05-09T11:00:36.560Z,0.98
2024-05-09T11:03:04.976Z,1.05
2024-05-09T11:05:36.273Z,0.95
2024-05-09T11:08:04.342Z,0.80
2024-05-09T11:10:34.818Z,1.00
2024-05-09T11:13:02.379Z,0.95
2024-05-09T11:15:43.730Z,0.90
2024-05-09T11:18:24.761Z,0.93
2024-05-09T11:20:56.580Z,1.13
2024-05-09T11:23:26.663Z,0.85
2024-05-09T11:25:58.437Z,0.88
2024-05-09T11:28:28.948Z,0.80
2024-05-09T11:31:11.379Z,1.00
2024-05-09T11:33:39.771Z,0.90
2024-05-09T11:36:11.011Z,0.80
2024-05-09T11:38:38.347Z,0.90
2024-05-09T11:41:09.499Z,0.90
2024-05-09T11:43:36.983Z,1.10
2024-05-09T11:46:09.856Z,1.10
2024-05-09T11:48:37.442Z,1.15
2024-05-09T11:51:08.391Z,0.88
2024-05-09T11:53:35.666Z,1.00
2024-05-09T11:56:05.794Z,1.40
2024-05-09T11:58:34.938Z,1.00
2024-05-09T12:01:05.112Z,1.10
2024-05-09T12:03:35.550Z,1.20
2024-05-09T12:06:07.114Z,1.20
2024-05-09T12:08:34.597Z,1.00
2024-05-09T12:11:04.726Z,1.00
2024-05-09T12:13:32.066Z,1.15
2024-05-09T12:16:02.339Z,1.13
2024-05-09T12:18:29.857Z,0.95
2024-05-09T12:21:02.821Z,1.00
2024-05-09T12:23:30.081Z,0.95
2024-05-09T12:26:01.318Z,0.88
2024-05-09T12:28:29.056Z,1.10
2024-05-09T12:30:59.166Z,0.80
2024-05-09T12:33:26.671Z,0.93
2024-05-09T12:35:56.738Z,1.40
2024-05-09T12:38:26.784Z,0.98
2024-05-09T12:40:56.863Z,0.90
2024-05-09T12:43:24.281Z,1.20
2024-05-09T12:45:54.506Z,1.00
2024-05-09T12:48:22.012Z,0.93
2024-05-09T12:50:52.000Z,1.10
2024-05-09T12:53:19.336Z,1.00
2024-05-09T12:55:56.947Z,0.90
2024-05-09T12:58:27.908Z,1.00
2024-05-09T13:00:58.219Z,1.10
2024-05-09T13:03:25.954Z,1.30
2024-05-09T13:05:56.679Z,0.90
2024-05-09T13:08:24.125Z,0.95
2024-05-09T13:10:56.818Z,1.30
2024-05-09T13:13:24.441Z,1.10
2024-05-09T13:15:55.360Z,1.17
2024-05-09T13:18:22.890Z,1.20
2024-05-09T13:20:52.890Z,1.30
2024-05-09T13:23:20.602Z,1.50
2024-05-09T13:25:50.680Z,1.42
2024-05-09T13:28:23.051Z,1.20
2024-05-09T13:30:53.260Z,1.30
2024-05-09T13:33:21.083Z,1.27
2024-05-09T13:35:51.395Z,1.42
2024-05-09T13:38:20.130Z,1.20
2024-05-09T13:40:50.912Z,1.30
2024-05-09T13:43:23.447Z,1.40
2024-05-09T13:45:55.417Z,1.60
2024-05-09T13:48:23.418Z,1.48
2024-05-09T13:50:53.717Z,1.42
2024-05-09T13:53:21.018Z,1.23
2024-05-09T13:55:51.605Z,1.50
2024-05-09T13:58:23.758Z,1.60
2024-05-09T14:00:54.304Z,1.73
2024-05-09T14:03:22.003Z,1.60
2024-05-09T14:05:53.052Z,1.70
2024-05-09T14:08:22.555Z,1.60
2024-05-09T14:10:54.080Z,1.65
2024-05-09T14:13:24.419Z,1.95
2024-05-09T14:15:54.604Z,1.80
2024-05-09T14:18:22.472Z,1.70
2024-05-09T14:20:53.074Z,1.90
2024-05-09T14:23:20.460Z,1.95
2024-05-09T14:25:53.094Z,1.70
2024-05-09T14:28:20.853Z,1.70
2024-05-09T14:30:56.712Z,2.00
2024-05-09T14:33:27.129Z,1.85
2024-05-09T14:35:57.366Z,1.77
2024-05-09T14:38:25.099Z,1.83
2024-05-09T14:40:55.575Z,2.05
2024-05-09T14:43:23.294Z,1.52
2024-05-09T14:45:56.581Z,1.73
2024-05-09T14:48:23.979Z,1.90
2024-05-09T14:50:54.195Z,1.73
2024-05-09T14:53:23.783Z,1.75
2024-05-09T14:55:53.927Z,2.10
2024-05-09T14:58:21.383Z,1.83
2024-05-09T15:00:52.196Z,1.85
2024-05-09T15:03:23.041Z,1.85
2024-05-09T15:05:53.672Z,2.00
2024-05-09T15:08:21.299Z,1.90
2024-05-09T15:10:52.704Z,2.20
2024-05-09T15:13:21.291Z,2.00
2024-05-09T15:15:51.819Z,2.40
2024-05-09T15:18:22.142Z,2.00
2024-05-09T15:20:52.493Z,1.95
2024-05-09T15:23:20.428Z,2.30
2024-05-09T15:25:50.541Z,1.83
2024-05-09T15:28:18.612Z,2.10
2024-05-09T15:30:48.923Z,1.90
2024-05-09T15:33:17.437Z,1.90
2024-05-09T15:35:50.583Z,2.10
2024-05-09T15:38:18.665Z,2.20
2024-05-09T15:40:49.156Z,2.10
2024-05-09T15:43:16.741Z,2.30
2024-05-09T15:45:47.118Z,1.95
2024-05-09T15:48:14.789Z,2.45
2024-05-09T15:50:45.473Z,1.75
2024-05-09T15:53:15.703Z,2.05
2024-05-09T15:55:45.783Z,2.03
2024-05-09T15:58:13.455Z,2.03
2024-05-09T16:00:46.293Z,2.40
2024-05-09T16:03:15.659Z,2.10
2024-05-09T16:05:47.518Z,2.17
2024-05-09T16:08:18.402Z,2.03
2024-05-09T16:10:49.796Z,2.42
2024-05-09T16:13:17.937Z,2.13
2024-05-09T16:15:48.509Z,2.63
2024-05-09T16:18:16.206Z,2.45
2024-05-09T16:20:49.396Z,2.28
2024-05-09T16:23:23.824Z,2.13
2024-05-09T16:25:52.009Z,1.98
2024-05-09T16:28:23.870Z,2.40
2024-05-09T16:30:52.032Z,2.17
2024-05-09T16:33:24.101Z,1.80
2024-05-09T16:35:51.818Z,2.13
2024-05-09T16:38:24.613Z,2.00
2024-05-09T16:40:52.474Z,1.80
2024-05-09T16:43:22.824Z,1.95
2024-05-09T16:45:51.345Z,2.10
2024-05-09T16:48:21.434Z,2.10
2024-05-09T16:50:49.384Z,2.15
2024-05-09T16:53:19.616Z,2.25
2024-05-09T16:55:49.916Z,2.40
2024-05-09T16:58:20.429Z,1.95
2024-05-09T17:00:48.275Z,2.30
2024-05-09T17:03:18.615Z,2.08
2024-05-09T17:05:47.403Z,2.13
2024-05-09T17:08:20.064Z,2.35
2024-05-09T17:10:50.584Z,2.10
2024-05-09T17:13:21.460Z,2.25
2024-05-09T17:15:52.370Z,2.22
2024-05-09T17:18:22.632Z,2.17
2024-05-09T17:20:51.643Z,2.22
2024-05-09T17:23:21.758Z,2.00
2024-05-09T17:25:52.192Z,2.28
2024-05-09T17:28:22.481Z,2.30
2024-05-09T17:30:50.010Z,1.80
2024-05-09T17:33:20.241Z,2.17
2024-05-09T17:35:50.765Z,2.30
2024-05-09T17:38:23.082Z,1.90
2024-05-09T17:40:53.882Z,2.28
2024-05-09T17:43:24.172Z,2.20
2024-05-09T17:45:51.735Z,2.35
2024-05-09T17:48:21.985Z,2.10
2024-05-09T17:50:52.192Z,2.30
2024-05-09T17:53:20.378Z,2.28
2024-05-09T17:55:54.085Z,2.03
2024-05-09T17:58:24.437Z,2.47
2024-05-09T18:00:54.896Z,2.50
2024-05-09T18:03:23.494Z,2.50
2024-05-09T18:05:54.472Z,2.30
2024-05-09T18:08:21.864Z,2.05
2024-05-09T18:10:54.800Z,2.55
2024-05-09T18:13:26.483Z,2.30
2024-05-09T18:15:56.944Z,2.20
2024-05-09T18:18:24.389Z,2.20
2024-05-09T18:20:54.747Z,2.17
2024-05-09T18:23:22.174Z,2.33
2024-05-09T18:25:54.822Z,2.55
2024-05-09T18:28:25.582Z,2.10
2024-05-09T18:30:55.900Z,2.20
2024-05-09T18:33:24.622Z,2.38
2024-05-09T18:35:55.071Z,2.35
2024-05-09T18:38:27.070Z,2.28
2024-05-09T18:40:54.583Z,2.40
2024-05-09T18:43:31.689Z,2.70
2024-05-09T18:46:08.614Z,2.38
2024-05-09T18:48:36.375Z,2.08
2024-05-09T18:51:07.068Z,1.98
2024-05-09T18:53:34.422Z,2.15
2024-05-09T18:56:04.428Z,2.15
2024-05-09T18:58:34.629Z,2.00
2024-05-09T19:01:05.104Z,2.00
2024-05-09T19:03:35.508Z,2.35
2024-05-09T19:06:05.902Z,2.22
2024-05-09T19:08:33.308Z,2.25
2024-05-09T19:11:03.390Z,2.35
2024-05-09T19:13:32.022Z,2.33
2024-05-09T19:16:04.772Z,2.15
2024-05-09T19:18:32.349Z,2.20
2024-05-09T19:21:02.529Z,2.35
2024-05-09T19:23:32.503Z,2.40
2024-05-09T19:26:03.209Z,2.00
2024-05-09T19:28:30.672Z,2.15
2024-05-09T19:31:00.710Z,2.40
2024-05-09T19:33:32.189Z,2.10
2024-05-09T19:36:02.202Z,2.35
2024-05-09T19:38:29.447Z,2.40
2024-05-09T19:40:59.390Z,2.30
2024-05-09T19:43:27.539Z,2.15
2024-05-09T19:45:57.682Z,2.13
2024-05-09T19:48:25.180Z,1.98
2024-05-09T19:50:57.948Z,2.20
2024-05-09T19:53:25.417Z,2.05
2024-05-09T19:55:55.766Z,1.88
2024-05-09T19:58:23.008Z,2.50
2024-05-09T20:00:53.279Z,2.03
2024-05-09T20:03:20.829Z,2.30
2024-05-09T20:05:50.929Z,2.17
2024-05-09T20:08:21.073Z,2.22
2024-05-09T20:10:51.213Z,2.38
2024-05-09T20:13:18.680Z,2.03
2024-05-09T20:15:48.859Z,2.20
2024-05-09T20:18:18.288Z,2.08
2024-05-09T20:20:50.636Z,2.25
2024-05-09T20:23:22.383Z,2.25
2024-05-09T20:25:52.339Z,2.00
2024-05-09T20:28:19.729Z,2.38
2024-05-09T20:30:49.899Z,2.08
2024-05-09T20:33:17.412Z,1.98
2024-05-09T20:35:47.633Z,2.20
2024-05-09T20:38:14.932Z,1.98
2024-05-09T20:40:47.886Z,2.22
2024-05-09T20:43:15.616Z,2.20
2024-05-09T20:45:45.718Z,2.65
2024-05-09T20:48:13.371Z,1.98
2024-05-09T20:50:44.309Z,1.98
2024-05-09T20:53:14.130Z,2.33
2024-05-09T20:55:47.759Z,2.20
2024-05-09T20:58:15.469Z,2.17
2024-05-09T21:00:46.958Z,2.42
2024-05-09T21:03:16.405Z,2.30
2024-05-09T21:05:48.400Z,2.17
2024-05-09T21:08:16.529Z,2.10
2024-05-09T21:10:49.391Z,2.13
2024-05-09T21:13:16.833Z,1.90
2024-05-09T21:15:47.165Z,1.80
2024-05-09T21:18:14.710Z,1.80
2024-05-09T21:20:44.981Z,2.05
2024-05-09T21:23:12.259Z,2.08
2024-05-09T21:25:42.224Z,1.88
2024-05-09T21:28:12.165Z,1.70
2024-05-09T21:30:43.260Z,1.73
2024-05-09T21:33:13.063Z,1.40
2024-05-09T21:35:45.307Z,1.40
2024-05-09T21:38:14.238Z,1.60
2024-05-09T21:40:45.324Z,1.60
2024-05-09T21:43:15.620Z,1.60
2024-05-09T21:45:46.034Z,1.45
2024-05-09T21:48:13.838Z,1.60
2024-05-09T21:50:43.932Z,1.40
2024-05-09T21:53:12.429Z,1.63
2024-05-09T21:55:43.271Z,1.67
2024-05-09T21:58:11.989Z,1.73
2024-05-09T22:00:46.468Z,1.70
2024-05-09T22:03:14.371Z,1.42
2024-05-09T22:05:45.210Z,1.40
2024-05-09T22:08:13.083Z,1.60
2024-05-09T22:10:43.135Z,1.70
2024-05-09T22:13:10.784Z,1.63
2024-05-09T22:15:41.839Z,1.60
2024-05-09T22:18:12.219Z,1.48
2024-05-09T22:20:45.813Z,1.60
2024-05-09T22:23:15.202Z,1.92
2024-05-09T22:25:45.266Z,2.08
2024-05-09T22:28:15.094Z,1.83
2024-05-09T22:30:47.415Z,1.67
2024-05-09T22:33:18.131Z,2.00
2024-05-09T22:35:48.287Z,1.95
2024-05-09T22:38:15.665Z,1.90
2024-05-09T22:40:48.991Z,1.60
2024-05-09T22:43:22.341Z,1.45
2024-05-09T22:45:54.973Z,1.67
2024-05-09T22:48:26.295Z,1.45
2024-05-09T22:50:56.656Z,1.58
2024-05-09T22:53:25.544Z,1.60
2024-05-09T22:55:56.121Z,1.40
2024-05-09T22:58:23.912Z,1.38
2024-05-09T23:00:54.207Z,1.70
2024-05-09T23:03:22.931Z,1.52
2024-05-09T23:05:56.134Z,1.70
2024-05-09T23:08:23.362Z,1.90
2024-05-09T23:10:53.799Z,2.15
2024-05-09T23:13:21.292Z,2.20
2024-05-09T23:15:51.375Z,2.33
2024-05-09T23:18:19.017Z,2.10
2024-05-09T23:20:48.999Z,2.10
2024-05-09T23:23:19.244Z,2.15
2024-05-09T23:25:49.284Z,2.30
2024-05-09T23:28:16.552Z,1.73
2024-05-09T23:30:46.561Z,1.90
2024-05-09T23:33:14.469Z,2.10
2024-05-09T23:35:45.816Z,2.33
2024-05-09T23:38:13.670Z,2.40
2024-05-09T23:40:46.451Z,2.40
2024-05-09T23:43:14.422Z,2.20
2024-05-09T23:45:44.933Z,2.45
2024-05-09T23:48:12.551Z,2.00
2024-05-09T23:50:42.722Z,2.60
2024-05-09T23:53:10.952Z,2.38
2024-05-09T23:55:41.416Z,2.42
2024-05-09T23:58:11.798Z,1.90
